Time;durP1;ratioP1;P1;durP2;ratioP2;P2;SDS_P1;SDS_P2;PMS_P1;PMS_P2;Temp;Humidity;BMP_temperature;BMP_pressure;BME280_temperature;BME280_humidity;BME280_pressure;Samples;Min_cycle;Max_cycle;Signal;HPM_P1;HPM_P2
2023/07/01 00:00:29;;;;;;;5.97;2.60;;;17.90;99.90;;;;;;5030608;28;20203;-64
2023/07/01 00:02:56;;;;;;;3.35;2.45;;;17.90;99.90;;;;;;5043566;28;20670;-63
2023/07/01 00:05:23;;;;;;;3.83;2.53;;;17.90;99.90;;;;;;5045080;28;20212;-63
2023/07/01 00:07:49;;;;;;;5.28;2.38;;;17.70;99.90;;;;;;5029946;28;20232;-64
2023/07/01 00:10:17;;;;;;;4.80;2.17;;;17.80;99.90;;;;;;5028446;28;20209;-64
2023/07/01 00:12:44;;;;;;;4.28;2.13;;;17.80;99.90;;;;;;5033261;28;20205;-64
2023/07/01 00:15:12;;;;;;;5.60;2.42;;;17.80;99.90;;;;;;5027361;28;20204;-63
2023/07/01 00:17:39;;;;;;;5.75;2.33;;;17.90;99.90;;;;;;5032938;28;20582;-64
2023/07/01 00:20:07;;;;;;;4.72;2.38;;;17.80;99.90;;;;;;5040893;28;20219;-64
2023/07/01 00:22:33;;;;;;;6.10;2.30;;;17.80;99.90;;;;;;5042720;28;20725;-64
2023/07/01 00:25:00;;;;;;;5.13;2.47;;;17.80;99.90;;;;;;5012477;28;20689;-64
2023/07/01 00:27:27;;;;;;;3.78;2.40;;;16.80;99.90;;;;;;5039533;28;20228;-63
2023/07/01 00:29:54;;;;;;;4.18;2.28;;;17.80;99.90;;;;;;5032877;28;20283;-63
2023/07/01 00:32:22;;;;;;;3.80;2.40;;;17.80;99.90;;;;;;5028490;28;20683;-63
2023/07/01 00:34:48;;;;;;;3.60;2.20;;;17.80;99.90;;;;;;5042711;28;20193;-63
2023/07/01 00:37:15;;;;;;;3.10;2.25;;;17.80;99.90;;;;;;5039867;28;20228;-64
2023/07/01 00:39:42;;;;;;;2.67;2.38;;;17.80;99.90;;;;;;5011343;28;20209;-64
2023/07/01 00:42:09;;;;;;;3.30;2.10;;;17.90;99.90;;;;;;5030521;28;20229;-64
2023/07/01 00:44:36;;;;;;;5.22;2.15;;;17.80;99.90;;;;;;5041084;28;20197;-64
2023/07/01 00:47:03;;;;;;;3.35;2.30;;;18.30;99.90;;;;;;5017552;28;20224;-64
2023/07/01 00:49:31;;;;;;;7.55;2.22;;;17.80;99.90;;;;;;5043216;28;20216;-63
2023/07/01 00:51:58;;;;;;;5.50;2.47;;;17.80;99.90;;;;;;5043278;28;20201;-64
2023/07/01 00:54:27;;;;;;;4.07;2.47;;;17.80;99.90;;;;;;5012112;28;20665;-64
2023/07/01 00:56:55;;;;;;;4.82;2.63;;;17.80;99.90;;;;;;5040020;28;20197;-64
2023/07/01 00:59:22;;;;;;;4.18;2.75;;;17.80;99.90;;;;;;5031163;28;20654;-63
2023/07/01 01:01:53;;;;;;;4.45;2.30;;;17.10;99.90;;;;;;5025727;28;20197;-64
2023/07/01 01:04:28;;;;;;;3.85;2.50;;;17.80;99.90;;;;;;5039450;28;20208;-63
2023/07/01 01:07:02;;;;;;;5.72;2.70;;;17.80;99.90;;;;;;5042943;28;20238;-64
2023/07/01 01:09:34;;;;;;;7.63;2.47;;;17.80;99.90;;;;;;5012154;28;20200;-64
2023/07/01 01:12:03;;;;;;;5.55;2.42;;;17.80;99.90;;;;;;5030693;28;20201;-64
2023/07/01 01:14:30;;;;;;;11.52;3.10;;;17.80;99.90;;;;;;5028992;28;20794;-64
2023/07/01 01:16:59;;;;;;;7.03;2.45;;;17.60;99.90;;;;;;5031413;28;21144;-64
2023/07/01 01:19:31;;;;;;;2.78;2.38;;;17.70;99.90;;;;;;5031255;28;20205;-64
2023/07/01 01:22:16;;;;;;;3.80;2.20;;;17.80;99.90;;;;;;5040734;28;20198;-64
2023/07/01 01:24:48;;;;;;;13.23;3.10;;;17.80;99.90;;;;;;5008992;28;20606;-64
2023/07/01 01:27:20;;;;;;;5.85;2.85;;;17.80;99.90;;;;;;5038893;28;20239;-63
2023/07/01 01:29:49;;;;;;;4.72;3.00;;;17.80;99.90;;;;;;5032648;28;20205;-64
2023/07/01 01:32:16;;;;;;;4.25;2.40;;;17.50;99.90;;;;;;5030766;28;20205;-64
2023/07/01 01:34:43;;;;;;;3.97;2.58;;;17.70;99.90;;;;;;5030159;28;20205;-63
2023/07/01 01:37:15;;;;;;;4.05;2.97;;;17.70;99.90;;;;;;5040621;28;20339;-64
2023/07/01 01:39:45;;;;;;;3.67;2.60;;;17.70;99.90;;;;;;5041263;28;20212;-64
2023/07/01 01:42:18;;;;;;;4.45;2.47;;;17.70;99.90;;;;;;5017646;28;20970;-63
2023/07/01 01:44:51;;;;;;;5.00;3.20;;;17.70;99.90;;;;;;5041584;28;20206;-64
2023/07/01 01:47:20;;;;;;;3.65;2.65;;;17.60;99.90;;;;;;5034748;28;20236;-64
2023/07/01 01:49:53;;;;;;;3.92;3.05;;;17.60;99.90;;;;;;5016876;28;20208;-64
2023/07/01 01:52:21;;;;;;;5.28;2.83;;;17.60;99.90;;;;;;5039206;28;21271;-64
2023/07/01 01:54:50;;;;;;;8.05;5.20;;;17.60;99.90;;;;;;5015339;28;20216;-64
2023/07/01 01:57:18;;;;;;;4.22;2.90;;;17.80;99.90;;;;;;5028755;28;20211;-63
2023/07/01 01:59:45;;;;;;;4.00;3.25;;;17.70;99.90;;;;;;5045025;28;20192;-65
2023/07/01 02:02:13;;;;;;;3.90;2.78;;;17.50;99.90;;;;;;5032578;28;20208;-64
2023/07/01 02:04:40;;;;;;;6.10;3.22;;;17.50;99.90;;;;;;5014693;28;20208;-64
2023/07/01 02:07:07;;;;;;;7.30;2.72;;;17.50;99.90;;;;;;5036849;28;20229;-63
2023/07/01 02:09:34;;;;;;;2.92;2.45;;;17.40;99.90;;;;;;5027198;28;20209;-64
2023/07/01 02:12:01;;;;;;;4.93;2.95;;;17.50;99.90;;;;;;5014181;28;20208;-64
2023/07/01 02:14:27;;;;;;;4.15;2.83;;;17.40;99.90;;;;;;5037917;28;20196;-64
2023/07/01 02:16:54;;;;;;;6.95;3.05;;;17.50;99.90;;;;;;5037884;28;20209;-64
2023/07/01 02:19:22;;;;;;;6.30;3.17;;;17.40;99.90;;;;;;5015205;28;20207;-64
2023/07/01 02:21:49;;;;;;;4.30;3.30;;;17.40;99.90;;;;;;5043392;28;20201;-64
2023/07/01 02:24:16;;;;;;;6.70;2.80;;;17.50;99.90;;;;;;5041930;28;20201;-64
2023/07/01 02:26:45;;;;;;;5.28;3.03;;;17.50;99.90;;;;;;5011247;28;20224;-64
2023/07/01 02:29:11;;;;;;;4.97;2.83;;;17.40;99.90;;;;;;5039455;28;20665;-63
2023/07/01 02:31:38;;;;;;;4.03;2.95;;;17.40;99.90;;;;;;5030162;28;20209;-64
2023/07/01 02:34:05;;;;;;;6.35;3.40;;;17.40;99.90;;;;;;5046220;28;20720;-64
2023/07/01 02:36:33;;;;;;;6.55;3.08;;;17.40;99.90;;;;;;5032760;28;20208;-64
2023/07/01 02:39:00;;;;;;;3.85;3.28;;;17.40;99.90;;;;;;5044336;28;20205;-64
2023/07/01 02:41:27;;;;;;;4.38;3.13;;;17.40;99.90;;;;;;5009208;28;20209;-64
2023/07/01 02:43:54;;;;;;;5.07;3.22;;;17.40;99.90;;;;;;5039241;28;20208;-64
2023/07/01 02:46:21;;;;;;;4.53;3.22;;;17.40;99.90;;;;;;5027566;28;20204;-64
2023/07/01 02:48:47;;;;;;;4.82;3.35;;;17.40;99.90;;;;;;5041686;28;20213;-64
2023/07/01 02:51:15;;;;;;;7.72;3.28;;;17.40;99.90;;;;;;5019013;28;20204;-64
2023/07/01 02:53:43;;;;;;;5.70;3.50;;;17.40;99.90;;;;;;5039627;28;20732;-64
2023/07/01 02:56:10;;;;;;;7.80;3.60;;;17.40;99.90;;;;;;5025485;28;20205;-64
2023/07/01 02:58:36;;;;;;;5.95;3.10;;;17.40;99.90;;;;;;5012679;28;20315;-63
2023/07/01 03:01:03;;;;;;;4.53;2.70;;;17.40;99.90;;;;;;5037161;28;20210;-64
2023/07/01 03:03:30;;;;;;;4.43;3.10;;;17.40;99.90;;;;;;5026899;28;20239;-64
2023/07/01 03:05:57;;;;;;;5.07;2.92;;;17.40;99.90;;;;;;5039112;28;20670;-63
2023/07/01 03:08:24;;;;;;;5.72;3.15;;;17.40;99.90;;;;;;5027308;28;20244;-63
2023/07/01 03:10:52;;;;;;;4.65;2.97;;;17.40;99.90;;;;;;5042474;28;20201;-65
2023/07/01 03:13:19;;;;;;;6.03;3.50;;;17.30;99.90;;;;;;5003423;28;20217;-63
2023/07/01 03:15:46;;;;;;;5.25;2.90;;;17.40;99.90;;;;;;5042360;28;20224;-64
2023/07/01 03:18:13;;;;;;;3.53;3.10;;;17.40;99.90;;;;;;5028525;28;20209;-63
2023/07/01 03:20:39;;;;;;;5.13;2.92;;;17.40;99.90;;;;;;5040044;28;20656;-64
2023/07/01 03:23:06;;;;;;;3.70;3.00;;;17.40;99.90;;;;;;5021491;28;20566;-63
2023/07/01 03:25:33;;;;;;;4.30;3.33;;;17.40;99.90;;;;;;5040284;28;20203;-63
2023/07/01 03:28:01;;;;;;;3.58;2.90;;;17.40;99.90;;;;;;5010625;28;20239;-64
2023/07/01 03:30:31;;;;;;;7.28;2.80;;;17.40;99.90;;;;;;5039723;28;20215;-64
2023/07/01 03:32:58;;;;;;;5.10;2.60;;;17.50;99.90;;;;;;5041675;28;20210;-63
2023/07/01 03:35:25;;;;;;;4.60;3.20;;;17.50;99.90;;;;;;5043561;28;20225;-64
2023/07/01 03:37:52;;;;;;;6.25;3.20;;;17.50;99.90;;;;;;5031559;28;20323;-64
2023/07/01 03:40:19;;;;;;;5.88;3.20;;;17.40;99.90;;;;;;5042212;28;20200;-64
2023/07/01 03:42:45;;;;;;;6.97;2.88;;;17.40;99.90;;;;;;5011207;28;20208;-63
2023/07/01 03:45:14;;;;;;;4.65;2.88;;;17.40;99.90;;;;;;5033465;28;20197;-64
2023/07/01 03:47:42;;;;;;;6.32;3.70;;;17.50;99.90;;;;;;5040988;28;20724;-64
2023/07/01 03:50:10;;;;;;;4.45;3.10;;;17.50;99.90;;;;;;5041865;28;20216;-63
2023/07/01 03:52:38;;;;;;;9.27;3.03;;;17.40;99.90;;;;;;5038964;28;20726;-64
2023/07/01 03:55:05;;;;;;;5.90;3.35;;;17.50;99.90;;;;;;5033700;28;20741;-64
2023/07/01 03:57:33;;;;;;;5.72;3.15;;;17.50;99.90;;;;;;5017906;28;20217;-63
2023/07/01 04:00:00;;;;;;;4.25;2.88;;;17.50;99.90;;;;;;5031729;28;20295;-63
2023/07/01 04:02:28;;;;;;;8.23;2.90;;;17.50;99.90;;;;;;5043389;28;20211;-64
2023/07/01 04:04:54;;;;;;;8.63;2.50;;;17.60;99.90;;;;;;5039534;28;20216;-64
2023/07/01 04:07:22;;;;;;;3.75;2.85;;;17.50;99.90;;;;;;5042351;28;20232;-64
2023/07/01 04:09:49;;;;;;;5.40;2.95;;;17.50;99.90;;;;;;5028303;28;20213;-64
2023/07/01 04:12:16;;;;;;;15.85;3.22;;;17.50;99.90;;;;;;5041018;28;20198;-63
2023/07/01 04:14:43;;;;;;;7.95;4.00;;;17.50;99.90;;;;;;5015541;28;20205;-64
2023/07/01 04:17:10;;;;;;;6.93;3.05;;;17.10;99.90;;;;;;5028993;28;20205;-63
2023/07/01 04:19:38;;;;;;;3.88;3.00;;;17.40;99.90;;;;;;5048954;28;20216;-64
2023/07/01 04:22:05;;;;;;;7.95;3.78;;;17.30;99.90;;;;;;5038670;28;20207;-64
2023/07/01 04:24:32;;;;;;;7.75;3.55;;;17.20;99.90;;;;;;5031060;28;20209;-64
2023/07/01 04:26:59;;;;;;;8.07;3.80;;;17.10;99.90;;;;;;5041513;28;20235;-64
2023/07/01 04:29:25;;;;;;;5.57;3.97;;;17.20;99.90;;;;;;5012853;28;20209;-64
2023/07/01 04:31:53;;;;;;;7.90;3.75;;;;;;;;;;5023549;28;20260;-64
2023/07/01 04:34:19;;;;;;;3.65;3.35;;;17.00;99.90;;;;;;5034884;28;20472;-64
2023/07/01 04:36:47;;;;;;;9.00;3.33;;;17.10;99.90;;;;;;5031949;28;20721;-64
2023/07/01 04:39:14;;;;;;;4.30;3.15;;;17.00;99.90;;;;;;5015723;28;20215;-64
2023/07/01 04:41:41;;;;;;;5.70;3.83;;;17.00;99.90;;;;;;5044546;28;20198;-64
2023/07/01 04:44:08;;;;;;;6.38;3.83;;;17.00;99.90;;;;;;5011022;28;20204;-64
2023/07/01 04:46:34;;;;;;;5.20;4.10;;;17.00;99.90;;;;;;5045129;28;20870;-63
2023/07/01 04:49:01;;;;;;;5.32;3.40;;;17.00;99.90;;;;;;5044626;28;20252;-63
2023/07/01 04:51:28;;;;;;;6.13;3.33;;;17.00;99.90;;;;;;5029654;28;20581;-64
2023/07/01 04:53:56;;;;;;;6.30;2.92;;;16.90;99.90;;;;;;5026934;28;20800;-64
2023/07/01 04:56:24;;;;;;;4.68;2.80;;;16.90;99.90;;;;;;5030342;28;20204;-63
2023/07/01 04:58:51;;;;;;;7.30;3.97;;;17.00;99.90;;;;;;5029432;28;20201;-63
2023/07/01 05:01:19;;;;;;;3.28;2.97;;;17.00;99.90;;;;;;5025278;28;20452;-64
2023/07/01 05:03:46;;;;;;;5.93;3.25;;;17.00;99.90;;;;;;5043334;28;20193;-63
2023/07/01 05:06:13;;;;;;;3.60;3.17;;;17.10;99.90;;;;;;5030011;28;20793;-64
2023/07/01 05:08:40;;;;;;;7.43;3.83;;;17.30;99.90;;;;;;5034800;28;20874;-64
2023/07/01 05:11:08;;;;;;;6.90;3.22;;;17.10;99.90;;;;;;5028301;28;21207;-64
2023/07/01 05:13:35;;;;;;;10.68;3.08;;;17.20;99.90;;;;;;5035061;28;20633;-63
2023/07/01 05:16:03;;;;;;;6.35;2.85;;;17.20;99.90;;;;;;5012474;28;20932;-64
2023/07/01 05:18:30;;;;;;;9.43;3.10;;;17.30;99.90;;;;;;5043283;28;20197;-64
2023/07/01 05:20:57;;;;;;;4.88;3.17;;;17.40;99.90;;;;;;5044964;28;20234;-64
2023/07/01 05:23:24;;;;;;;5.45;3.47;;;17.40;99.90;;;;;;5035629;28;20658;-64
2023/07/01 05:25:51;;;;;;;7.25;3.03;;;17.40;99.90;;;;;;5016145;28;20765;-64
2023/07/01 05:28:19;;;;;;;5.50;3.45;;;17.40;99.90;;;;;;5044117;28;20831;-63
2023/07/01 05:30:46;;;;;;;6.22;3.70;;;17.40;99.90;;;;;;5000483;28;20212;-64
2023/07/01 05:33:13;;;;;;;5.20;3.30;;;17.40;99.90;;;;;;5044110;28;20291;-64
2023/07/01 05:35:40;;;;;;;4.88;3.28;;;17.40;99.90;;;;;;5037244;28;20296;-63
2023/07/01 05:38:10;;;;;;;5.80;3.05;;;17.40;99.90;;;;;;5044130;28;20248;-64
2023/07/01 05:40:37;;;;;;;4.88;3.17;;;16.10;99.90;;;;;;5025898;28;20211;-63
2023/07/01 05:43:04;;;;;;;5.10;2.70;;;17.40;99.90;;;;;;5044380;28;20688;-64
2023/07/01 05:45:32;;;;;;;5.15;3.00;;;17.40;99.90;;;;;;5010028;28;20200;-64
2023/07/01 05:47:59;;;;;;;7.78;3.00;;;17.30;99.90;;;;;;5035065;28;20721;-64
2023/07/01 05:50:26;;;;;;;6.32;3.03;;;17.20;99.90;;;;;;5037314;28;20200;-64
2023/07/01 05:52:53;;;;;;;5.78;3.05;;;17.20;99.90;;;;;;5043910;28;20196;-64
2023/07/01 05:55:20;;;;;;;12.13;2.90;;;17.20;99.90;;;;;;5030494;28;20197;-64
2023/07/01 05:57:46;;;;;;;6.60;2.80;;;17.10;99.90;;;;;;5042938;28;20200;-64
2023/07/01 06:00:15;;;;;;;6.18;3.13;;;16.00;99.90;;;;;;5026996;28;20201;-64
2023/07/01 06:02:43;;;;;;;5.75;3.08;;;17.00;99.90;;;;;;5020193;28;20666;-64
2023/07/01 06:05:10;;;;;;;6.55;3.33;;;17.00;99.90;;;;;;5045314;28;20558;-64
2023/07/01 06:07:37;;;;;;;10.63;3.50;;;16.90;99.90;;;;;;5045670;28;20229;-64
2023/07/01 06:10:04;;;;;;;6.30;3.15;;;16.70;99.90;;;;;;5044385;28;20666;-64
2023/07/01 06:12:31;;;;;;;6.05;3.47;;;16.90;99.90;;;;;;5027297;28;20201;-64
2023/07/01 06:14:58;;;;;;;6.45;3.33;;;16.90;99.90;;;;;;5042071;28;20197;-64
2023/07/01 06:17:25;;;;;;;3.42;2.90;;;16.90;99.90;;;;;;5010698;28;20209;-64
2023/07/01 06:19:53;;;;;;;4.15;3.20;;;16.90;99.90;;;;;;5028694;28;20204;-64
2023/07/01 06:22:20;;;;;;;5.57;3.20;;;17.00;99.90;;;;;;5036082;28;20201;-63
2023/07/01 06:24:47;;;;;;;4.00;3.47;;;17.00;99.90;;;;;;5041346;28;20207;-64
2023/07/01 06:27:14;;;;;;;6.20;3.60;;;16.90;99.90;;;;;;5025436;28;20216;-64
2023/07/01 06:29:40;;;;;;;4.63;3.50;;;16.90;99.90;;;;;;5042425;28;20225;-63
2023/07/01 06:32:08;;;;;;;7.05;3.85;;;17.00;99.90;;;;;;5037018;28;20193;-64
2023/07/01 06:34:35;;;;;;;8.93;3.65;;;16.90;99.90;;;;;;4995272;28;20206;-64
2023/07/01 06:37:04;;;;;;;7.13;3.85;;;17.00;99.90;;;;;;5045017;28;20228;-64
2023/07/01 06:39:32;;;;;;;9.30;4.00;;;17.00;99.90;;;;;;5042670;28;20208;-64
2023/07/01 06:41:58;;;;;;;5.28;3.78;;;17.10;99.90;;;;;;5025570;28;20215;-64
2023/07/01 06:44:25;;;;;;;6.00;3.53;;;17.10;99.90;;;;;;5030009;28;20208;-64
2023/07/01 06:46:52;;;;;;;7.38;3.35;;;17.10;99.90;;;;;;5046297;28;20204;-64
2023/07/01 06:49:19;;;;;;;5.72;3.55;;;17.20;99.90;;;;;;5005851;28;20465;-64
2023/07/01 06:51:45;;;;;;;6.75;3.65;;;17.20;99.90;;;;;;5048289;28;20197;-64
2023/07/01 06:54:13;;;;;;;5.10;3.70;;;17.20;99.90;;;;;;5042509;28;20201;-64
2023/07/01 06:56:40;;;;;;;5.97;4.05;;;17.30;99.90;;;;;;5044420;28;20201;-64
2023/07/01 06:59:07;;;;;;;5.70;3.40;;;17.30;99.90;;;;;;5027396;28;20208;-64
2023/07/01 07:01:34;;;;;;;6.85;3.22;;;17.30;99.90;;;;;;5032575;28;20318;-64
2023/07/01 07:04:00;;;;;;;4.15;3.10;;;17.40;99.90;;;;;;4977393;28;20244;-64
2023/07/01 07:06:27;;;;;;;5.68;3.53;;;17.40;99.90;;;;;;5043850;28;20291;-64
2023/07/01 07:08:54;;;;;;;10.95;3.40;;;17.40;99.90;;;;;;5005175;28;20233;-63
2023/07/01 07:11:22;;;;;;;3.90;3.15;;;17.50;99.90;;;;;;5032598;28;20208;-64
2023/07/01 07:13:49;;;;;;;5.10;3.45;;;17.50;99.90;;;;;;5034586;28;20204;-63
2023/07/01 07:16:16;;;;;;;9.27;3.65;;;17.50;99.90;;;;;;5049788;28;20677;-63
2023/07/01 07:18:43;;;;;;;5.22;3.33;;;17.50;99.90;;;;;;5031633;28;20205;-64
2023/07/01 07:21:10;;;;;;;6.57;3.75;;;17.60;99.90;;;;;;5019688;28;20208;-63
2023/07/01 07:23:37;;;;;;;4.30;3.47;;;17.60;99.90;;;;;;5019925;28;20674;-64
2023/07/01 07:26:03;;;;;;;4.72;2.67;;;17.50;99.90;;;;;;5044796;28;20197;-64
2023/07/01 07:28:32;;;;;;;5.07;3.33;;;17.50;99.90;;;;;;5048186;28;20229;-64
2023/07/01 07:30:58;;;;;;;5.05;3.58;;;17.50;99.90;;;;;;5028250;28;20216;-64
2023/07/01 07:33:25;;;;;;;9.88;4.38;;;17.50;99.90;;;;;;5035194;28;20224;-64
2023/07/01 07:35:52;;;;;;;5.53;3.60;;;17.50;99.90;;;;;;4993387;28;20229;-64
2023/07/01 07:38:19;;;;;;;6.95;3.67;;;17.50;99.90;;;;;;5031465;28;20237;-63
2023/07/01 07:40:46;;;;;;;5.55;3.60;;;17.50;99.90;;;;;;5032951;28;20556;-64
2023/07/01 07:43:13;;;;;;;6.45;3.95;;;17.60;99.90;;;;;;5048816;28;20662;-64
2023/07/01 07:45:41;;;;;;;4.68;3.70;;;17.60;99.90;;;;;;5030977;28;20212;-64
2023/07/01 07:48:08;;;;;;;3.80;3.35;;;17.50;99.90;;;;;;5042305;28;20221;-64
2023/07/01 07:50:35;;;;;;;7.63;3.90;;;17.50;99.90;;;;;;5014541;28;20236;-64
2023/07/01 07:53:03;;;;;;;4.65;3.95;;;17.40;99.90;;;;;;5023499;28;20207;-64
2023/07/01 07:55:33;;;;;;;5.47;3.30;;;17.40;99.90;;;;;;5010062;28;20225;-64
2023/07/01 07:58:00;;;;;;;6.72;3.63;;;17.40;99.90;;;;;;5046247;28;20212;-64
2023/07/01 08:00:27;;;;;;;6.70;3.50;;;17.40;99.90;;;;;;5036866;28;20258;-64
2023/07/01 08:02:55;;;;;;;4.47;3.13;;;17.40;99.90;;;;;;5020391;28;21213;-64
2023/07/01 08:05:24;;;;;;;3.53;2.75;;;17.40;99.90;;;;;;5010822;28;20204;-64
2023/07/01 08:07:51;;;;;;;3.05;2.75;;;17.40;99.90;;;;;;5006871;28;20221;-64
2023/07/01 08:10:18;;;;;;;3.42;3.00;;;17.40;99.90;;;;;;5012155;28;20247;-64
2023/07/01 08:12:45;;;;;;;3.35;2.90;;;17.30;99.90;;;;;;5014239;28;20212;-64
2023/07/01 08:15:12;;;;;;;5.00;3.03;;;17.30;99.90;;;;;;5024436;28;20220;-63
2023/07/01 08:17:39;;;;;;;5.38;2.90;;;17.30;99.90;;;;;;5011379;28;20221;-64
2023/07/01 08:20:09;;;;;;;5.30;3.33;;;17.30;99.90;;;;;;5033004;22;20228;-64
2023/07/01 08:22:36;;;;;;;5.05;3.33;;;17.30;99.90;;;;;;4997224;28;20221;-63
2023/07/01 08:25:03;;;;;;;3.25;2.95;;;16.90;99.90;;;;;;5029573;28;20315;-64
2023/07/01 08:27:30;;;;;;;5.95;3.40;;;17.40;99.90;;;;;;5034340;28;20843;-63
2023/07/01 08:29:57;;;;;;;3.50;3.00;;;;;;;;;;5055387;28;20238;-64
2023/07/01 08:32:24;;;;;;;3.67;2.83;;;17.30;99.90;;;;;;5028977;28;21244;-63
2023/07/01 08:34:51;;;;;;;6.93;3.63;;;17.30;99.90;;;;;;5028132;28;20219;-64
2023/07/01 08:37:19;;;;;;;9.52;3.05;;;17.30;99.90;;;;;;5028477;28;20224;-64
2023/07/01 08:39:46;;;;;;;3.90;3.30;;;17.30;99.90;;;;;;5033549;28;24480;-64
2023/07/01 08:42:17;;;;;;;3.92;3.22;;;17.30;99.90;;;;;;5020028;28;20239;-63
2023/07/01 08:44:45;;;;;;;6.30;3.40;;;17.30;99.90;;;;;;5048532;28;20230;-64
2023/07/01 08:47:13;;;;;;;4.53;3.35;;;17.40;99.90;;;;;;5047636;28;20197;-64
2023/07/01 08:49:42;;;;;;;4.32;2.90;;;17.50;99.90;;;;;;5022509;28;20301;-64
2023/07/01 08:52:11;;;;;;;4.32;3.47;;;17.40;99.90;;;;;;5018974;28;20256;-63
2023/07/01 08:54:40;;;;;;;3.60;3.17;;;17.50;99.90;;;;;;5035114;28;20207;-64
2023/07/01 08:57:09;;;;;;;3.83;3.40;;;17.40;99.90;;;;;;5045661;28;20689;-63
2023/07/01 08:59:36;;;;;;;5.57;3.63;;;17.50;99.90;;;;;;5040817;28;22356;-64
2023/07/01 09:02:03;;;;;;;5.80;3.30;;;17.50;99.90;;;;;;5050208;28;20260;-64
2023/07/01 09:04:30;;;;;;;4.85;3.80;;;17.50;99.90;;;;;;5036737;28;20824;-64
2023/07/01 09:06:57;;;;;;;3.65;2.60;;;17.50;99.90;;;;;;5025267;28;20292;-64
2023/07/01 09:09:24;;;;;;;5.80;3.15;;;;;;;;;;5051099;28;20223;-64
2023/07/01 09:11:52;;;;;;;3.75;3.30;;;16.90;99.90;;;;;;5017969;28;20225;-64
2023/07/01 09:14:19;;;;;;;3.30;3.00;;;17.40;99.90;;;;;;5028693;28;20213;-64
2023/07/01 09:16:47;;;;;;;4.43;3.17;;;17.40;99.90;;;;;;5022057;28;20220;-64
2023/07/01 09:19:16;;;;;;;3.22;2.90;;;17.40;99.90;;;;;;5036875;28;20231;-64
2023/07/01 09:21:44;;;;;;;5.15;3.58;;;17.40;99.90;;;;;;5003111;28;20242;-64
2023/07/01 09:24:12;;;;;;;4.55;3.25;;;17.50;99.90;;;;;;5049426;28;20196;-63
2023/07/01 09:26:39;;;;;;;3.90;3.22;;;17.50;99.90;;;;;;5023972;28;20292;-64
2023/07/01 09:29:12;;;;;;;5.00;3.38;;;17.50;99.90;;;;;;5018620;28;20231;-64
2023/07/01 09:31:47;;;;;;;5.57;3.20;;;17.50;99.90;;;;;;5029025;28;20235;-64
2023/07/01 09:34:15;;;;;;;3.88;3.00;;;17.50;99.90;;;;;;5054191;28;20200;-64
2023/07/01 09:36:41;;;;;;;6.47;3.42;;;17.50;99.90;;;;;;5015921;28;20677;-65
2023/07/01 09:39:08;;;;;;;3.63;3.30;;;17.40;99.90;;;;;;5018238;28;21098;-64
2023/07/01 09:41:35;;;;;;;3.90;3.30;;;17.90;99.90;;;;;;5023422;28;20231;-64
2023/07/01 09:44:16;;;;;;;5.88;3.38;;;17.70;99.90;;;;;;5026801;28;20220;-64
2023/07/01 09:46:43;;;;;;;3.47;3.17;;;17.50;99.90;;;;;;5051572;28;20211;-65
2023/07/01 09:49:11;;;;;;;3.70;2.90;;;17.50;99.90;;;;;;5045038;28;20224;-65
2023/07/01 09:51:46;;;;;;;7.97;3.80;;;17.50;99.90;;;;;;5031321;28;20211;-64
2023/07/01 09:54:25;;;;;;;3.55;3.25;;;17.60;99.90;;;;;;5017153;28;20229;-64
2023/07/01 09:56:53;;;;;;;5.80;3.20;;;17.70;99.90;;;;;;5031544;28;20265;-64
2023/07/01 09:59:21;;;;;;;4.10;3.33;;;17.60;99.90;;;;;;5019158;28;20231;-64
2023/07/01 10:01:50;;;;;;;3.17;2.70;;;17.60;99.90;;;;;;5053429;28;20220;-65
2023/07/01 10:04:18;;;;;;;3.50;3.10;;;17.60;99.90;;;;;;5041440;28;20227;-64
2023/07/01 10:06:45;;;;;;;5.15;3.17;;;17.60;99.90;;;;;;5029115;28;21251;-65
2023/07/01 10:09:12;;;;;;;3.28;2.97;;;17.20;99.90;;;;;;5011718;28;20223;-64
2023/07/01 10:11:39;;;;;;;4.43;2.60;;;17.60;99.90;;;;;;5039312;28;20204;-64
2023/07/01 10:14:07;;;;;;;4.53;3.15;;;17.60;99.90;;;;;;5020316;28;20204;-65
2023/07/01 10:16:45;;;;;;;4.38;3.25;;;17.70;99.90;;;;;;5035918;28;20200;-65
2023/07/01 10:19:27;;;;;;;4.85;3.72;;;17.60;99.90;;;;;;5049373;28;20200;-64
2023/07/01 10:21:54;;;;;;;6.10;3.95;;;17.60;99.90;;;;;;5033011;28;20224;-64
2023/07/01 10:24:37;;;;;;;4.18;3.58;;;17.60;99.90;;;;;;5011102;28;21810;-64
2023/07/01 10:27:05;;;;;;;5.10;4.07;;;18.00;99.90;;;;;;5031439;28;21039;-64
2023/07/01 10:29:55;;;;;;;5.47;4.22;;;17.60;99.90;;;;;;5019788;28;20330;-64
2023/07/01 10:32:33;;;;;;;5.13;4.25;;;17.70;99.90;;;;;;5039158;28;20226;-64
2023/07/01 10:35:15;;;;;;;7.70;4.15;;;17.70;99.90;;;;;;5044597;28;20776;-65
2023/07/01 10:37:42;;;;;;;6.03;4.38;;;17.80;99.90;;;;;;5037138;28;20231;-65
2023/07/01 10:40:43;;;;;;;11.98;4.90;;;17.80;99.90;;;;;;5020496;28;20209;-65
2023/07/01 10:43:29;;;;;;;5.50;4.88;;;17.80;99.90;;;;;;5039058;28;20874;-64
2023/07/01 10:46:07;;;;;;;5.47;4.82;;;17.90;99.90;;;;;;5049771;28;20205;-65
2023/07/01 10:48:36;;;;;;;5.85;4.60;;;17.90;99.90;;;;;;5059610;28;20204;-64
2023/07/01 10:51:04;;;;;;;7.10;5.10;;;17.90;99.90;;;;;;5059934;28;20220;-65
2023/07/01 10:53:32;;;;;;;5.40;4.90;;;17.90;99.90;;;;;;5033998;28;20228;-64
2023/07/01 10:56:13;;;;;;;4.72;4.25;;;18.00;99.90;;;;;;5019441;28;20351;-64
2023/07/01 10:58:41;;;;;;;4.55;4.05;;;18.00;99.90;;;;;;5031156;28;20210;-65
2023/07/01 11:01:08;;;;;;;5.07;4.00;;;18.10;99.90;;;;;;5041431;28;20694;-64
2023/07/01 11:03:58;;;;;;;4.90;4.32;;;17.90;99.90;;;;;;5059219;28;20200;-64
2023/07/01 11:06:25;;;;;;;10.43;5.32;;;18.00;99.90;;;;;;5052471;28;20220;-64
2023/07/01 11:08:53;;;;;;;7.13;4.70;;;17.90;99.90;;;;;;5025673;28;20227;-64
2023/07/01 11:11:25;;;;;;;5.00;4.50;;;17.90;99.90;;;;;;5023175;28;20208;-65
2023/07/01 11:14:00;;;;;;;5.88;4.47;;;17.90;99.90;;;;;;5034082;28;20685;-65
2023/07/01 11:16:28;;;;;;;6.00;4.30;;;18.00;99.90;;;;;;5036842;28;20201;-65
2023/07/01 11:18:59;;;;;;;5.80;3.95;;;18.00;99.90;;;;;;5047867;28;20285;-65
2023/07/01 11:21:27;;;;;;;5.65;4.75;;;18.00;99.90;;;;;;5050656;28;20236;-65
2023/07/01 11:23:56;;;;;;;7.10;5.65;;;18.00;99.90;;;;;;5028046;28;21258;-65
2023/07/01 11:26:24;;;;;;;5.13;4.47;;;18.00;99.90;;;;;;5029618;28;21317;-65
2023/07/01 11:28:51;;;;;;;6.63;4.90;;;18.10;99.90;;;;;;5036719;28;20215;-65
2023/07/01 11:31:21;;;;;;;6.15;5.13;;;18.10;99.90;;;;;;5051300;28;20763;-65
2023/07/01 11:33:49;;;;;;;6.82;4.45;;;18.10;99.90;;;;;;5032718;28;20708;-65
2023/07/01 11:36:18;;;;;;;6.50;4.78;;;18.20;99.90;;;;;;5046858;28;20247;-65
2023/07/01 11:38:46;;;;;;;5.22;4.20;;;17.40;99.90;;;;;;5044049;28;20868;-65
2023/07/01 11:41:15;;;;;;;4.43;3.72;;;18.20;99.90;;;;;;5047264;28;20204;-65
2023/07/01 11:43:41;;;;;;;4.07;3.60;;;18.20;99.90;;;;;;5016006;28;20204;-65
2023/07/01 11:46:09;;;;;;;6.03;4.03;;;18.20;99.90;;;;;;5048580;28;20220;-65
2023/07/01 11:48:36;;;;;;;6.13;3.58;;;18.30;99.90;;;;;;5033816;28;20224;-65
2023/07/01 11:51:04;;;;;;;3.88;3.13;;;18.30;99.90;;;;;;5042433;28;20232;-66
2023/07/01 11:53:33;;;;;;;3.80;3.40;;;19.40;99.90;;;;;;5028304;28;20200;-66
2023/07/01 11:56:02;;;;;;;3.92;3.28;;;17.90;99.90;;;;;;5032168;28;20224;-65
2023/07/01 11:58:30;;;;;;;4.07;3.00;;;18.30;99.90;;;;;;5014564;28;20311;-66
2023/07/01 12:00:58;;;;;;;3.80;3.33;;;18.40;99.90;;;;;;5029538;28;20238;-65
2023/07/01 12:03:25;;;;;;;4.95;3.03;;;18.40;99.90;;;;;;5045686;28;20207;-65
2023/07/01 12:05:52;;;;;;;5.85;2.63;;;18.50;99.90;;;;;;5029592;28;20245;-65
2023/07/01 12:08:19;;;;;;;4.95;3.35;;;18.50;99.90;;;;;;5049104;28;20796;-65
2023/07/01 12:10:47;;;;;;;3.97;3.03;;;18.60;99.90;;;;;;5035971;28;20801;-65
2023/07/01 12:13:30;;;;;;;3.50;3.10;;;18.40;99.90;;;;;;5018166;28;20216;-65
2023/07/01 12:15:59;;;;;;;3.30;3.00;;;18.50;99.90;;;;;;5018035;28;20231;-65
2023/07/01 12:18:28;;;;;;;3.33;3.03;;;18.50;99.90;;;;;;5042215;28;20245;-65
2023/07/01 12:20:55;;;;;;;3.95;3.45;;;18.30;99.90;;;;;;5040114;28;20811;-65
2023/07/01 12:23:22;;;;;;;4.70;3.88;;;18.50;99.90;;;;;;5034083;28;20245;-65
2023/07/01 12:25:51;;;;;;;5.10;4.07;;;18.50;99.90;;;;;;5039392;28;20196;-65
2023/07/01 12:28:19;;;;;;;5.82;4.35;;;18.50;99.90;;;;;;5024710;28;20229;-64
2023/07/01 12:30:47;;;;;;;6.45;5.03;;;;;;;;;;5026870;28;20308;-65
2023/07/01 12:33:14;;;;;;;6.30;5.05;;;18.40;99.90;;;;;;5040184;28;20317;-64
2023/07/01 12:35:41;;;;;;;5.90;4.88;;;18.40;99.90;;;;;;5037937;28;20224;-64
2023/07/01 12:38:12;;;;;;;6.47;5.28;;;15.60;99.90;;;;;;5036383;28;20204;-65
2023/07/01 12:40:39;;;;;;;6.78;4.75;;;18.40;99.90;;;;;;5049501;28;20278;-65
2023/07/01 12:43:08;;;;;;;6.70;4.47;;;18.40;99.90;;;;;;5007626;28;20220;-66
2023/07/01 12:45:35;;;;;;;5.40;4.75;;;18.50;99.90;;;;;;5056715;28;20217;-65
2023/07/01 12:48:05;;;;;;;6.38;4.85;;;18.50;99.90;;;;;;5019030;28;20316;-65
2023/07/01 12:50:32;;;;;;;6.10;5.22;;;18.50;99.90;;;;;;5024118;28;20254;-65
2023/07/01 12:52:59;;;;;;;6.28;5.00;;;18.30;99.90;;;;;;5052980;28;20201;-65